createdAt,value
2016-11-28T00:00:11.605Z,927.18
2016-11-28T00:00:26.063Z,927.23
2016-11-28T00:00:40.448Z,927.19
2016-11-28T00:00:54.795Z,927.23
2016-11-28T00:01:09.106Z,927.22
2016-11-28T00:01:23.456Z,927.2
2016-11-28T00:01:37.855Z,927.22
2016-11-28T00:01:52.239Z,927.21
2016-11-28T00:02:06.566Z,927.22
2016-11-28T00:02:20.912Z,927.2
2016-11-28T00:02:35.341Z,927.21
2016-11-28T00:02:49.666Z,927.21
2016-11-28T00:03:04.015Z,927.21
2016-11-28T00:03:18.372Z,927.22
2016-11-28T00:03:32.740Z,927.23
2016-11-28T00:03:47.042Z,927.22
2016-11-28T00:04:01.382Z,927.22
2016-11-28T00:04:15.707Z,927.21
2016-11-28T00:04:30.006Z,927.2
2016-11-28T00:04:44.418Z,927.2
2016-11-28T00:04:58.871Z,927.19
2016-11-28T00:05:13.247Z,927.22
2016-11-28T00:05:27.633Z,927.19
2016-11-28T00:05:42.031Z,927.22
2016-11-28T00:05:56.388Z,927.23
2016-11-28T00:06:10.776Z,927.22
2016-11-28T00:06:25.098Z,927.17
2016-11-28T00:06:39.430Z,927.2
2016-11-28T00:06:53.738Z,927.21
2016-11-28T00:07:08.153Z,927.23
2016-11-28T00:07:22.475Z,927.21
2016-11-28T00:07:36.746Z,927.19
2016-11-28T00:07:51.123Z,927.2
2016-11-28T00:08:05.458Z,927.19
2016-11-28T00:08:19.772Z,927.19
2016-11-28T00:08:34.129Z,927.18
2016-11-28T00:08:48.473Z,927.18
2016-11-28T00:09:02.833Z,927.16
2016-11-28T00:09:17.220Z,927.18
2016-11-28T00:09:31.603Z,927.15
2016-11-28T00:09:45.983Z,927.15
2016-11-28T00:10:00.388Z,927.14
2016-11-28T00:10:14.719Z,927.14
2016-11-28T00:10:29.012Z,927.15
2016-11-28T00:10:43.407Z,927.14
2016-11-28T00:10:57.782Z,927.15
2016-11-28T00:11:12.097Z,927.12
2016-11-28T00:11:26.428Z,927.12
2016-11-28T00:11:40.774Z,927.11
2016-11-28T00:11:55.163Z,927.13
2016-11-28T00:12:09.519Z,927.08
2016-11-28T00:12:23.891Z,927.09
2016-11-28T00:12:38.834Z,927.1
2016-11-28T00:12:53.239Z,927.09
2016-11-28T00:13:07.519Z,927.08
2016-11-28T00:13:21.832Z,927.07
2016-11-28T00:13:36.240Z,927.08
2016-11-28T00:13:50.650Z,927.05
2016-11-28T00:14:04.970Z,927.09
2016-11-28T00:14:19.338Z,927.07
2016-11-28T00:14:33.624Z,927.07
2016-11-28T00:14:47.957Z,927.02
2016-11-28T00:15:02.280Z,927.05
2016-11-28T00:15:16.579Z,927.04
2016-11-28T00:15:30.952Z,927
2016-11-28T00:15:45.344Z,927.03
2016-11-28T00:15:59.656Z,927.04
2016-11-28T00:16:14.077Z,927
2016-11-28T00:16:28.418Z,927.04
2016-11-28T00:16:42.766Z,927.01
2016-11-28T00:16:57.100Z,927.02
2016-11-28T00:17:11.493Z,927.03
2016-11-28T00:17:25.803Z,927.03
2016-11-28T00:17:40.182Z,927.02
2016-11-28T00:17:54.567Z,927.03
2016-11-28T00:18:08.951Z,927.02
2016-11-28T00:18:23.331Z,927.02
2016-11-28T00:18:37.668Z,927.03
2016-11-28T00:18:52.001Z,927.01
2016-11-28T00:19:06.336Z,927.03
2016-11-28T00:19:20.690Z,927.04
2016-11-28T00:19:35.044Z,927.08
2016-11-28T00:19:49.416Z,927.06
2016-11-28T00:20:03.761Z,927.06
2016-11-28T00:20:18.172Z,927.07
2016-11-28T00:20:32.539Z,927.03
2016-11-28T00:20:46.899Z,927.07
2016-11-28T00:21:01.246Z,927.08
2016-11-28T00:21:15.534Z,927.09
2016-11-28T00:21:29.887Z,927.08
2016-11-28T00:21:44.215Z,927.1
2016-11-28T00:21:58.577Z,927.09
2016-11-28T00:22:12.875Z,927.1
2016-11-28T00:22:27.276Z,927.09
2016-11-28T00:22:41.606Z,927.13
2016-11-28T00:22:55.956Z,927.11
2016-11-28T00:23:10.357Z,927.09
2016-11-28T00:23:24.702Z,927.12
2016-11-28T00:23:39.111Z,927.12
2016-11-28T00:23:53.462Z,927.09
2016-11-28T00:24:07.855Z,927.12
2016-11-28T00:24:22.304Z,927.08
2016-11-28T00:24:36.632Z,927.09
2016-11-28T00:24:50.915Z,927.13
2016-11-28T00:25:05.228Z,927.14
2016-11-28T00:25:19.561Z,927.14
2016-11-28T00:25:33.891Z,927.15
2016-11-28T00:25:48.274Z,927.18
2016-11-28T00:26:02.642Z,927.19
2016-11-28T00:26:16.997Z,927.18
2016-11-28T00:26:31.315Z,927.16
2016-11-28T00:26:45.638Z,927.19
2016-11-28T00:26:59.979Z,927.19
2016-11-28T00:27:14.382Z,927.21
2016-11-28T00:27:28.753Z,927.18
2016-11-28T00:27:43.533Z,927.22
2016-11-28T00:27:57.960Z,927.26
2016-11-28T00:28:12.335Z,927.26
2016-11-28T00:28:26.716Z,927.27
2016-11-28T00:28:41.092Z,927.25
2016-11-28T00:28:55.455Z,927.29
2016-11-28T00:29:09.732Z,927.32
2016-11-28T00:29:24.058Z,927.31
2016-11-28T00:29:38.438Z,927.31
2016-11-28T00:29:52.776Z,927.32
2016-11-28T00:30:07.103Z,927.29
2016-11-28T00:30:21.463Z,927.33
2016-11-28T00:30:35.769Z,927.31
2016-11-28T00:30:50.147Z,927.35
2016-11-28T00:31:04.463Z,927.34
2016-11-28T00:31:18.762Z,927.34
2016-11-28T00:31:33.050Z,927.39
2016-11-28T00:31:47.376Z,927.35
2016-11-28T00:32:01.742Z,927.35
2016-11-28T00:32:16.091Z,927.37
2016-11-28T00:32:30.466Z,927.4
2016-11-28T00:32:44.844Z,927.41
2016-11-28T00:32:59.251Z,927.41
2016-11-28T00:33:13.633Z,927.41
2016-11-28T00:33:27.982Z,927.43
2016-11-28T00:33:42.349Z,927.43
2016-11-28T00:33:56.675Z,927.43
2016-11-28T00:34:10.996Z,927.4
2016-11-28T00:34:25.362Z,927.43
2016-11-28T00:34:39.678Z,927.44
2016-11-28T00:34:54.003Z,927.45
2016-11-28T00:35:08.315Z,927.44
2016-11-28T00:35:22.682Z,927.46
2016-11-28T00:35:37.093Z,927.48
2016-11-28T00:35:51.439Z,927.46
2016-11-28T00:36:05.720Z,927.48
2016-11-28T00:36:20.136Z,927.5
2016-11-28T00:36:34.556Z,927.5
2016-11-28T00:36:48.927Z,927.5
2016-11-28T00:37:03.274Z,927.5
2016-11-28T00:37:17.689Z,927.51
2016-11-28T00:37:32.049Z,927.52
2016-11-28T00:37:46.434Z,927.53
2016-11-28T00:38:00.789Z,927.54
2016-11-28T00:38:15.121Z,927.51
2016-11-28T00:38:29.467Z,927.54
2016-11-28T00:38:43.836Z,927.57
2016-11-28T00:38:58.219Z,927.54
2016-11-28T00:39:12.566Z,927.54
2016-11-28T00:39:26.918Z,927.57
2016-11-28T00:39:41.238Z,927.53
2016-11-28T00:39:55.612Z,927.57
2016-11-28T00:40:10.045Z,927.55
2016-11-28T00:40:24.370Z,927.57
2016-11-28T00:40:38.750Z,927.54
2016-11-28T00:40:53.087Z,927.56
2016-11-28T00:41:07.428Z,927.58
2016-11-28T00:41:21.832Z,927.53
2016-11-28T00:41:36.143Z,927.55
2016-11-28T00:41:50.452Z,927.55
2016-11-28T00:42:04.790Z,927.56
2016-11-28T00:42:19.104Z,927.56
2016-11-28T00:42:33.494Z,927.54
2016-11-28T00:42:48.203Z,927.59
2016-11-28T00:43:02.589Z,927.57
2016-11-28T00:43:16.933Z,927.57
2016-11-28T00:43:31.280Z,927.57
2016-11-28T00:43:45.598Z,927.56
2016-11-28T00:43:59.950Z,927.55
2016-11-28T00:44:14.298Z,927.56
2016-11-28T00:44:28.684Z,927.56
2016-11-28T00:44:43.022Z,927.55
2016-11-28T00:44:57.378Z,927.58
2016-11-28T00:45:11.717Z,927.59
2016-11-28T00:45:26.092Z,927.58
2016-11-28T00:45:40.466Z,927.57
2016-11-28T00:45:54.824Z,927.55
2016-11-28T00:46:09.272Z,927.51
2016-11-28T00:46:23.645Z,927.55
2016-11-28T00:46:37.942Z,927.54
2016-11-28T00:46:52.258Z,927.56
2016-11-28T00:47:06.567Z,927.54
2016-11-28T00:47:20.921Z,927.55
2016-11-28T00:47:35.259Z,927.57
2016-11-28T00:47:49.643Z,927.52
2016-11-28T00:48:04.040Z,927.53
2016-11-28T00:48:18.431Z,927.55
2016-11-28T00:48:32.808Z,927.52
2016-11-28T00:48:47.164Z,927.54
2016-11-28T00:49:01.551Z,927.53
2016-11-28T00:49:15.902Z,927.54
2016-11-28T00:49:30.252Z,927.51
2016-11-28T00:49:44.637Z,927.53
2016-11-28T00:49:59.043Z,927.52
2016-11-28T00:50:13.450Z,927.55
2016-11-28T00:50:27.800Z,927.53
2016-11-28T00:50:42.189Z,927.57
2016-11-28T00:50:56.553Z,927.54
2016-11-28T00:51:10.914Z,927.55
2016-11-28T00:51:25.345Z,927.55
2016-11-28T00:51:39.710Z,927.56
2016-11-28T00:51:54.061Z,927.54
2016-11-28T00:52:08.377Z,927.53
2016-11-28T00:52:22.710Z,927.55
2016-11-28T00:52:37.098Z,927.49
2016-11-28T00:52:51.463Z,927.53
2016-11-28T00:53:05.829Z,927.55
2016-11-28T00:53:20.139Z,927.51
2016-11-28T00:53:34.519Z,927.52
2016-11-28T00:53:48.911Z,927.53
2016-11-28T00:54:03.288Z,927.55
2016-11-28T00:54:17.667Z,927.51
2016-11-28T00:54:31.993Z,927.51
2016-11-28T00:54:46.369Z,927.52
2016-11-28T00:55:00.674Z,927.5
2016-11-28T00:55:15.020Z,927.51
2016-11-28T00:55:29.303Z,927.53
2016-11-28T00:55:43.708Z,927.5
2016-11-28T00:55:58.010Z,927.5
2016-11-28T00:56:12.358Z,927.47
2016-11-28T00:56:26.746Z,927.52
2016-11-28T00:56:41.123Z,927.51
2016-11-28T00:56:55.487Z,927.49
2016-11-28T00:57:09.862Z,927.51
2016-11-28T00:57:24.182Z,927.53
2016-11-28T00:57:38.609Z,927.51
2016-11-28T00:57:53.281Z,927.52
2016-11-28T00:58:07.623Z,927.49
2016-11-28T00:58:21.941Z,927.49
2016-11-28T00:58:36.263Z,927.52
2016-11-28T00:58:50.606Z,927.52
2016-11-28T00:59:04.983Z,927.52
2016-11-28T00:59:19.327Z,927.53
2016-11-28T00:59:33.693Z,927.5
2016-11-28T00:59:48.096Z,927.54
2016-11-28T01:00:02.420Z,927.49
2016-11-28T01:00:16.798Z,927.54
2016-11-28T01:00:31.144Z,927.54
2016-11-28T01:00:45.537Z,927.53
2016-11-28T01:00:59.893Z,927.53
2016-11-28T01:01:14.306Z,927.53
2016-11-28T01:01:28.670Z,927.55
2016-11-28T01:01:43.030Z,927.57
2016-11-28T01:01:57.347Z,927.57
2016-11-28T01:02:11.735Z,927.56
2016-11-28T01:02:26.137Z,927.57
2016-11-28T01:02:40.589Z,927.58
2016-11-28T01:02:54.996Z,927.54
2016-11-28T01:03:09.330Z,927.57
2016-11-28T01:03:23.647Z,927.61
2016-11-28T01:03:37.990Z,927.59
2016-11-28T01:03:52.387Z,927.61
2016-11-28T01:04:06.782Z,927.61
2016-11-28T01:04:21.176Z,927.61
2016-11-28T01:04:35.541Z,927.61
2016-11-28T01:04:49.858Z,927.62
2016-11-28T01:05:04.223Z,927.6
2016-11-28T01:05:18.618Z,927.61
2016-11-28T01:05:32.923Z,927.62
2016-11-28T01:05:47.292Z,927.57
2016-11-28T01:06:01.666Z,927.6
2016-11-28T01:06:16.047Z,927.61
2016-11-28T01:06:30.380Z,927.6
2016-11-28T01:06:44.724Z,927.6
2016-11-28T01:06:59.079Z,927.61
2016-11-28T01:07:13.408Z,927.6
2016-11-28T01:07:27.848Z,927.58
2016-11-28T01:07:42.192Z,927.62
2016-11-28T01:07:56.595Z,927.63
2016-11-28T01:08:10.994Z,927.64
2016-11-28T01:08:25.326Z,927.61
2016-11-28T01:08:39.670Z,927.63
2016-11-28T01:08:54.025Z,927.62
2016-11-28T01:09:08.359Z,927.63
2016-11-28T01:09:22.707Z,927.64
2016-11-28T01:09:37.128Z,927.61
2016-11-28T01:09:51.502Z,927.65
2016-11-28T01:10:05.904Z,927.63
2016-11-28T01:10:20.325Z,927.64
2016-11-28T01:10:34.710Z,927.65
2016-11-28T01:10:49.032Z,927.64
2016-11-28T01:11:03.392Z,927.66
2016-11-28T01:11:17.755Z,927.65
2016-11-28T01:11:32.122Z,927.65
2016-11-28T01:11:46.533Z,927.63
2016-11-28T01:12:00.885Z,927.62
2016-11-28T01:12:15.303Z,927.61
2016-11-28T01:12:29.663Z,927.64
2016-11-28T01:12:44.019Z,927.64
2016-11-28T01:12:58.836Z,927.63
2016-11-28T01:13:13.173Z,927.64
2016-11-28T01:13:27.525Z,927.67
2016-11-28T01:13:41.891Z,927.65
2016-11-28T01:13:56.250Z,927.63
2016-11-28T01:14:10.660Z,927.64
2016-11-28T01:14:24.996Z,927.64
2016-11-28T01:14:39.385Z,927.66
2016-11-28T01:14:53.676Z,927.65
2016-11-28T01:15:08.028Z,927.65
2016-11-28T01:15:22.458Z,927.63
2016-11-28T01:15:36.860Z,927.62
2016-11-28T01:15:51.216Z,927.67
2016-11-28T01:16:05.575Z,927.69
2016-11-28T01:16:19.889Z,927.68
2016-11-28T01:16:34.253Z,927.65
2016-11-28T01:16:48.578Z,927.65
2016-11-28T01:17:03.041Z,927.68
2016-11-28T01:17:17.417Z,927.67
2016-11-28T01:17:31.860Z,927.67
2016-11-28T01:17:46.152Z,927.65
2016-11-28T01:18:00.548Z,927.65
2016-11-28T01:18:15.016Z,927.64
2016-11-28T01:18:29.420Z,927.63
2016-11-28T01:18:43.831Z,927.62
2016-11-28T01:18:58.173Z,927.63
2016-11-28T01:19:12.530Z,927.62
2016-11-28T01:19:26.870Z,927.66
2016-11-28T01:19:41.259Z,927.64
2016-11-28T01:19:55.569Z,927.64
2016-11-28T01:20:09.822Z,927.6
2016-11-28T01:20:24.165Z,927.61
2016-11-28T01:20:38.536Z,927.58
2016-11-28T01:20:52.900Z,927.65
2016-11-28T01:21:07.226Z,927.63
2016-11-28T01:21:21.582Z,927.63
2016-11-28T01:21:35.887Z,927.63
2016-11-28T01:21:50.228Z,927.65
2016-11-28T01:22:04.559Z,927.62
2016-11-28T01:22:18.935Z,927.64
2016-11-28T01:22:33.367Z,927.62
2016-11-28T01:22:47.728Z,927.62
2016-11-28T01:23:02.096Z,927.64
2016-11-28T01:23:16.416Z,927.62
2016-11-28T01:23:30.785Z,927.64
2016-11-28T01:23:45.144Z,927.6
2016-11-28T01:23:59.527Z,927.67
2016-11-28T01:24:13.868Z,927.63
2016-11-28T01:24:28.240Z,927.66
2016-11-28T01:24:42.632Z,927.64
2016-11-28T01:24:56.949Z,927.66
2016-11-28T01:25:11.282Z,927.62
2016-11-28T01:25:25.626Z,927.67
2016-11-28T01:25:40.056Z,927.65
2016-11-28T01:25:54.403Z,927.68
2016-11-28T01:26:08.753Z,927.65
2016-11-28T01:26:23.068Z,927.66
2016-11-28T01:26:37.424Z,927.68
2016-11-28T01:26:51.811Z,927.7
2016-11-28T01:27:06.213Z,927.67
2016-11-28T01:27:20.554Z,927.7
2016-11-28T01:27:34.946Z,927.68
2016-11-28T01:27:49.278Z,927.69
2016-11-28T01:28:03.888Z,927.68
2016-11-28T01:28:18.251Z,927.7
2016-11-28T01:28:32.586Z,927.7
2016-11-28T01:28:46.912Z,927.68
2016-11-28T01:29:01.213Z,927.73
2016-11-28T01:29:15.569Z,927.69
2016-11-28T01:29:29.905Z,927.72
2016-11-28T01:29:44.303Z,927.71
2016-11-28T01:29:58.660Z,927.7
2016-11-28T01:30:13.044Z,927.69
2016-11-28T01:30:27.426Z,927.68
2016-11-28T01:30:41.784Z,927.68
2016-11-28T01:30:56.133Z,927.73
2016-11-28T01:31:10.553Z,927.7
2016-11-28T01:31:24.913Z,927.69
2016-11-28T01:31:39.280Z,927.7
2016-11-28T01:31:53.637Z,927.72
2016-11-28T01:32:08.002Z,927.69
2016-11-28T01:32:22.368Z,927.72
2016-11-28T01:32:36.711Z,927.72
2016-11-28T01:32:51.043Z,927.71
2016-11-28T01:33:05.435Z,927.68
2016-11-28T01:33:19.833Z,927.7
2016-11-28T01:33:34.173Z,927.76
2016-11-28T01:33:48.557Z,927.73
2016-11-28T01:34:02.963Z,927.75
2016-11-28T01:34:17.309Z,927.72
2016-11-28T01:34:31.685Z,927.73
2016-11-28T01:34:46.028Z,927.75
2016-11-28T01:35:00.344Z,927.76
2016-11-28T01:35:14.711Z,927.75
2016-11-28T01:35:29.045Z,927.75
2016-11-28T01:35:43.371Z,927.79
2016-11-28T01:35:57.726Z,927.77
2016-11-28T01:36:12.061Z,927.75
2016-11-28T01:36:26.376Z,927.79
2016-11-28T01:36:40.777Z,927.75
2016-11-28T01:36:55.127Z,927.79
2016-11-28T01:37:09.505Z,927.8
2016-11-28T01:37:23.825Z,927.77
2016-11-28T01:37:38.116Z,927.76
2016-11-28T01:37:52.506Z,927.76
2016-11-28T01:38:06.873Z,927.78
2016-11-28T01:38:21.273Z,927.77
2016-11-28T01:38:35.617Z,927.76
2016-11-28T01:38:49.988Z,927.76
2016-11-28T01:39:04.294Z,927.79
2016-11-28T01:39:18.645Z,927.77
2016-11-28T01:39:32.981Z,927.77
2016-11-28T01:39:47.310Z,927.77
2016-11-28T01:40:01.643Z,927.77
2016-11-28T01:40:16.034Z,927.78
2016-11-28T01:40:30.360Z,927.75
2016-11-28T01:40:44.720Z,927.77
2016-11-28T01:40:59.112Z,927.79
2016-11-28T01:41:13.480Z,927.77
2016-11-28T01:41:27.792Z,927.8
2016-11-28T01:41:42.149Z,927.8
2016-11-28T01:41:56.495Z,927.76
2016-11-28T01:42:10.778Z,927.75
2016-11-28T01:42:25.130Z,927.78
2016-11-28T01:42:39.451Z,927.8
2016-11-28T01:42:53.834Z,927.76
2016-11-28T01:43:08.634Z,927.77
2016-11-28T01:43:23.055Z,927.77
2016-11-28T01:43:37.454Z,927.8
2016-11-28T01:43:51.777Z,927.76
2016-11-28T01:44:06.102Z,927.76
2016-11-28T01:44:20.515Z,927.77
2016-11-28T01:44:34.889Z,927.73
2016-11-28T01:44:49.179Z,927.75
2016-11-28T01:45:03.544Z,927.75
2016-11-28T01:45:17.876Z,927.74
2016-11-28T01:45:32.209Z,927.75
2016-11-28T01:45:46.590Z,927.73
2016-11-28T01:46:00.977Z,927.73
2016-11-28T01:46:15.282Z,927.73
2016-11-28T01:46:29.607Z,927.72
2016-11-28T01:46:43.978Z,927.74
2016-11-28T01:46:58.399Z,927.73
2016-11-28T01:47:12.802Z,927.72
2016-11-28T01:47:27.160Z,927.71
2016-11-28T01:47:41.553Z,927.73
2016-11-28T01:47:55.967Z,927.72
2016-11-28T01:48:10.282Z,927.73
2016-11-28T01:48:24.589Z,927.7
2016-11-28T01:48:38.958Z,927.69
2016-11-28T01:48:53.280Z,927.72
2016-11-28T01:49:07.675Z,927.69
2016-11-28T01:49:22.028Z,927.71
2016-11-28T01:49:36.336Z,927.68
2016-11-28T01:49:50.716Z,927.71
2016-11-28T01:50:05.152Z,927.71
2016-11-28T01:50:19.472Z,927.7
2016-11-28T01:50:33.848Z,927.7
2016-11-28T01:50:48.198Z,927.7
2016-11-28T01:51:02.550Z,927.67
2016-11-28T01:51:16.974Z,927.68
2016-11-28T01:51:31.298Z,927.68
2016-11-28T01:51:45.710Z,927.64
2016-11-28T01:52:00.032Z,927.67
2016-11-28T01:52:14.360Z,927.68
2016-11-28T01:52:28.742Z,927.68
2016-11-28T01:52:43.051Z,927.7
2016-11-28T01:52:57.496Z,927.69
2016-11-28T01:53:11.837Z,927.67
2016-11-28T01:53:26.254Z,927.64
2016-11-28T01:53:40.605Z,927.66
2016-11-28T01:53:54.951Z,927.66
2016-11-28T01:54:09.386Z,927.63
2016-11-28T01:54:23.748Z,927.68
2016-11-28T01:54:38.102Z,927.63
2016-11-28T01:54:52.413Z,927.63
2016-11-28T01:55:06.784Z,927.62
2016-11-28T01:55:21.119Z,927.64
2016-11-28T01:55:35.469Z,927.64
2016-11-28T01:55:49.788Z,927.64
2016-11-28T01:56:04.099Z,927.64
2016-11-28T01:56:18.419Z,927.66
2016-11-28T01:56:32.759Z,927.69
2016-11-28T01:56:47.138Z,927.67
2016-11-28T01:57:01.513Z,927.69
2016-11-28T01:57:15.825Z,927.65
2016-11-28T01:57:30.188Z,927.66
2016-11-28T01:57:44.591Z,927.64
2016-11-28T01:57:59.028Z,927.68
2016-11-28T01:58:13.762Z,927.69
2016-11-28T01:58:28.193Z,927.7
2016-11-28T01:58:42.589Z,927.65
2016-11-28T01:58:56.955Z,927.67
2016-11-28T01:59:11.336Z,927.64
2016-11-28T01:59:25.693Z,927.66
2016-11-28T01:59:40.063Z,927.66
2016-11-28T01:59:54.466Z,927.65
2016-11-28T02:00:08.803Z,927.65
2016-11-28T02:00:23.133Z,927.63
2016-11-28T02:00:37.479Z,927.68
2016-11-28T02:00:51.870Z,927.65
2016-11-28T02:01:06.151Z,927.64
2016-11-28T02:01:20.473Z,927.63
2016-11-28T02:01:34.816Z,927.63
2016-11-28T02:01:49.204Z,927.63
2016-11-28T02:02:03.537Z,927.65
2016-11-28T02:02:17.882Z,927.61
2016-11-28T02:02:32.180Z,927.63
2016-11-28T02:02:46.560Z,927.64
2016-11-28T02:03:00.883Z,927.63
2016-11-28T02:03:15.300Z,927.61
2016-11-28T02:03:29.629Z,927.6
2016-11-28T02:03:43.997Z,927.63
2016-11-28T02:03:58.369Z,927.64
2016-11-28T02:04:12.695Z,927.65
2016-11-28T02:04:27.046Z,927.63
2016-11-28T02:04:41.451Z,927.64
2016-11-28T02:04:55.745Z,927.6
2016-11-28T02:05:10.105Z,927.62
2016-11-28T02:05:24.427Z,927.62
2016-11-28T02:05:38.796Z,927.61
2016-11-28T02:05:53.165Z,927.6
2016-11-28T02:06:07.519Z,927.64
2016-11-28T02:06:21.928Z,927.64
2016-11-28T02:06:36.264Z,927.62
2016-11-28T02:06:50.626Z,927.64
2016-11-28T02:07:05.063Z,927.65
2016-11-28T02:07:19.424Z,927.63
2016-11-28T02:07:33.731Z,927.62
2016-11-28T02:07:48.062Z,927.62
2016-11-28T02:08:02.402Z,927.61
2016-11-28T02:08:16.708Z,927.66
2016-11-28T02:08:31.096Z,927.63
2016-11-28T02:08:45.476Z,927.61
2016-11-28T02:08:59.968Z,927.62
2016-11-28T02:09:14.400Z,927.6
2016-11-28T02:09:28.805Z,927.63
2016-11-28T02:09:43.196Z,927.61
2016-11-28T02:09:57.541Z,927.59
2016-11-28T02:10:11.896Z,927.64
2016-11-28T02:10:26.201Z,927.62
2016-11-28T02:10:40.603Z,927.62
2016-11-28T02:10:54.900Z,927.59
2016-11-28T02:11:09.260Z,927.57
2016-11-28T02:11:23.618Z,927.58
2016-11-28T02:11:37.958Z,927.6
2016-11-28T02:11:52.265Z,927.59
2016-11-28T02:12:06.644Z,927.58
2016-11-28T02:12:20.955Z,927.6
2016-11-28T02:12:35.246Z,927.58
2016-11-28T02:12:49.636Z,927.57
2016-11-28T02:13:04.017Z,927.61
2016-11-28T02:13:18.720Z,927.61
2016-11-28T02:13:33.078Z,927.6
2016-11-28T02:13:47.441Z,927.61
2016-11-28T02:14:01.710Z,927.61
2016-11-28T02:14:16.078Z,927.62
2016-11-28T02:14:30.424Z,927.67
2016-11-28T02:14:44.836Z,927.65
2016-11-28T02:14:59.252Z,927.63
2016-11-28T02:15:14.312Z,927.62
2016-11-28T02:15:28.688Z,927.61
2016-11-28T02:15:43.053Z,927.65
2016-11-28T02:15:57.437Z,927.59
2016-11-28T02:16:11.808Z,927.62
2016-11-28T02:16:26.202Z,927.61
2016-11-28T02:16:40.530Z,927.63
2016-11-28T02:16:54.810Z,927.62
2016-11-28T02:17:09.157Z,927.62
2016-11-28T02:17:23.637Z,927.65
2016-11-28T02:17:38.025Z,927.6
2016-11-28T02:17:52.485Z,927.64
2016-11-28T02:18:06.818Z,927.61
2016-11-28T02:18:21.206Z,927.65
2016-11-28T02:18:35.667Z,927.62
2016-11-28T02:18:50.013Z,927.63
2016-11-28T02:19:04.346Z,927.63
2016-11-28T02:19:18.700Z,927.63
2016-11-28T02:19:32.990Z,927.65
2016-11-28T02:19:47.346Z,927.63
2016-11-28T02:20:01.711Z,927.62
2016-11-28T02:20:16.103Z,927.61
2016-11-28T02:20:30.466Z,927.62
2016-11-28T02:20:44.850Z,927.62
2016-11-28T02:20:59.157Z,927.62
2016-11-28T02:21:13.596Z,927.59
2016-11-28T02:21:27.888Z,927.57
2016-11-28T02:21:42.279Z,927.59
2016-11-28T02:21:56.610Z,927.6
2016-11-28T02:22:11.029Z,927.59
2016-11-28T02:22:25.332Z,927.61
2016-11-28T02:22:39.669Z,927.58
2016-11-28T02:22:54.033Z,927.61
2016-11-28T02:23:08.404Z,927.58
2016-11-28T02:23:22.741Z,927.6
2016-11-28T02:23:37.115Z,927.61
2016-11-28T02:23:51.493Z,927.57
2016-11-28T02:24:05.852Z,927.56
2016-11-28T02:24:20.230Z,927.59
2016-11-28T02:24:34.616Z,927.59
2016-11-28T02:24:48.976Z,927.6
2016-11-28T02:25:03.306Z,927.61
2016-11-28T02:25:17.651Z,927.59
2016-11-28T02:25:32.015Z,927.58
2016-11-28T02:25:46.425Z,927.58
2016-11-28T02:26:00.812Z,927.62
2016-11-28T02:26:15.225Z,927.61
2016-11-28T02:26:29.566Z,927.62
2016-11-28T02:26:43.924Z,927.6
2016-11-28T02:26:58.225Z,927.59
2016-11-28T02:27:12.573Z,927.62
2016-11-28T02:27:26.887Z,927.58
2016-11-28T02:27:41.267Z,927.58
2016-11-28T02:27:55.647Z,927.57
2016-11-28T02:28:10.027Z,927.6
2016-11-28T02:28:24.742Z,927.59
2016-11-28T02:28:39.097Z,927.58
2016-11-28T02:28:53.438Z,927.57
2016-11-28T02:29:07.777Z,927.55
2016-11-28T02:29:22.232Z,927.55
2016-11-28T02:29:36.547Z,927.58
2016-11-28T02:29:50.968Z,927.58
2016-11-28T02:30:05.306Z,927.55
2016-11-28T02:30:19.665Z,927.55
2016-11-28T02:30:34.051Z,927.56
2016-11-28T02:30:48.415Z,927.57
2016-11-28T02:31:02.707Z,927.59
2016-11-28T02:31:17.106Z,927.58
2016-11-28T02:31:31.539Z,927.56
2016-11-28T02:31:45.902Z,927.54
2016-11-28T02:32:00.274Z,927.54
2016-11-28T02:32:14.656Z,927.57
2016-11-28T02:32:29.002Z,927.57
2016-11-28T02:32:43.383Z,927.55
2016-11-28T02:32:57.794Z,927.59
2016-11-28T02:33:12.187Z,927.56
2016-11-28T02:33:26.527Z,927.58
2016-11-28T02:33:40.887Z,927.58
2016-11-28T02:33:55.180Z,927.57
2016-11-28T02:34:09.500Z,927.58
2016-11-28T02:34:23.828Z,927.57
2016-11-28T02:34:38.184Z,927.61
2016-11-28T02:34:52.582Z,927.59
2016-11-28T02:35:06.924Z,927.59
2016-11-28T02:35:21.234Z,927.58
2016-11-28T02:35:35.582Z,927.6
2016-11-28T02:35:49.905Z,927.59
2016-11-28T02:36:04.180Z,927.63
2016-11-28T02:36:18.524Z,927.64
2016-11-28T02:36:32.966Z,927.6
2016-11-28T02:36:47.298Z,927.64
2016-11-28T02:37:01.629Z,927.65
2016-11-28T02:37:16.048Z,927.66
2016-11-28T02:37:30.477Z,927.66
2016-11-28T02:37:44.811Z,927.65
2016-11-28T02:37:59.171Z,927.66
2016-11-28T02:38:13.522Z,927.63
2016-11-28T02:38:27.906Z,927.65
2016-11-28T02:38:42.366Z,927.65
2016-11-28T02:38:56.803Z,927.65
2016-11-28T02:39:11.197Z,927.66
2016-11-28T02:39:25.600Z,927.64
2016-11-28T02:39:40.014Z,927.61
2016-11-28T02:39:54.345Z,927.65
2016-11-28T02:40:08.756Z,927.65
2016-11-28T02:40:23.077Z,927.62
2016-11-28T02:40:37.494Z,927.63
2016-11-28T02:40:51.898Z,927.64
2016-11-28T02:41:06.267Z,927.61
2016-11-28T02:41:20.578Z,927.62
2016-11-28T02:41:34.899Z,927.64
2016-11-28T02:41:49.265Z,927.63
2016-11-28T02:42:03.713Z,927.62
2016-11-28T02:42:18.068Z,927.64
2016-11-28T02:42:32.373Z,927.6
2016-11-28T02:42:46.705Z,927.62
2016-11-28T02:43:01.024Z,927.62
2016-11-28T02:43:15.384Z,927.61
2016-11-28T02:43:30.049Z,927.62
2016-11-28T02:43:44.396Z,927.57
2016-11-28T02:43:58.757Z,927.59
2016-11-28T02:44:13.132Z,927.57
2016-11-28T02:44:27.448Z,927.56
2016-11-28T02:44:41.813Z,927.56
2016-11-28T02:44:56.106Z,927.51
2016-11-28T02:45:10.440Z,927.56
2016-11-28T02:45:24.771Z,927.52
2016-11-28T02:45:39.084Z,927.57
2016-11-28T02:45:53.501Z,927.54
2016-11-28T02:46:07.818Z,927.55
2016-11-28T02:46:22.181Z,927.55
2016-11-28T02:46:36.580Z,927.58
2016-11-28T02:46:50.941Z,927.56
2016-11-28T02:47:05.264Z,927.54
2016-11-28T02:47:19.592Z,927.56
2016-11-28T02:47:34.044Z,927.57
2016-11-28T02:47:48.418Z,927.56
2016-11-28T02:48:02.754Z,927.56
2016-11-28T02:48:17.086Z,927.56
2016-11-28T02:48:31.440Z,927.56
2016-11-28T02:48:45.880Z,927.55
2016-11-28T02:49:00.309Z,927.55
2016-11-28T02:49:14.659Z,927.58
2016-11-28T02:49:29.050Z,927.58
2016-11-28T02:49:43.387Z,927.61
2016-11-28T02:49:57.721Z,927.63
2016-11-28T02:50:12.119Z,927.61
2016-11-28T02:50:26.449Z,927.59
2016-11-28T02:50:40.701Z,927.64
2016-11-28T02:50:55.046Z,927.67
2016-11-28T02:51:09.403Z,927.63
2016-11-28T02:51:23.705Z,927.62
2016-11-28T02:51:38.114Z,927.65
2016-11-28T02:51:52.455Z,927.66
2016-11-28T02:52:06.861Z,927.64
2016-11-28T02:52:21.173Z,927.64
2016-11-28T02:52:35.505Z,927.63
2016-11-28T02:52:49.861Z,927.67
2016-11-28T02:53:04.191Z,927.66
2016-11-28T02:53:18.513Z,927.66
2016-11-28T02:53:32.827Z,927.68
2016-11-28T02:53:47.141Z,927.68
2016-11-28T02:54:01.503Z,927.66
2016-11-28T02:54:15.830Z,927.68
2016-11-28T02:54:30.176Z,927.7
2016-11-28T02:54:44.557Z,927.7
2016-11-28T02:54:58.945Z,927.69
2016-11-28T02:55:13.327Z,927.7
2016-11-28T02:55:27.651Z,927.68
2016-11-28T02:55:42.061Z,927.71
2016-11-28T02:55:56.366Z,927.66
2016-11-28T02:56:10.797Z,927.68
2016-11-28T02:56:25.180Z,927.67
2016-11-28T02:56:39.507Z,927.66
2016-11-28T02:56:53.862Z,927.66
2016-11-28T02:57:08.199Z,927.67
2016-11-28T02:57:22.559Z,927.64
2016-11-28T02:57:36.909Z,927.65
2016-11-28T02:57:51.293Z,927.65
2016-11-28T02:58:05.721Z,927.62
2016-11-28T02:58:20.087Z,927.67
2016-11-28T02:58:34.660Z,927.64
2016-11-28T02:58:49.072Z,927.64
2016-11-28T02:59:03.434Z,927.63
2016-11-28T02:59:17.872Z,927.62
2016-11-28T02:59:32.224Z,927.6
2016-11-28T02:59:46.606Z,927.59